Time;durP1;ratioP1;P1;durP2;ratioP2;P2;SDS_P1;SDS_P2;PMS_P1;PMS_P2;Temp;Humidity;BMP_temperature;BMP_pressure;BME280_temperature;BME280_humidity;BME280_pressure;Samples;Min_cycle;Max_cycle;Signal;HPM_P1;HPM_P2
2022/03/26 00:00:21;;;;;;;;;;;;;;;6.19;100.00;103345.03;4947173;29;19925;-71
2022/03/26 00:02:47;;;;;;;;;;;;;;;6.14;100.00;103338.81;4936962;29;19918;-71
2022/03/26 00:05:12;;;;;;;;;;;;;;;6.13;100.00;103340.53;4958230;29;20331;-71
2022/03/26 00:07:37;;;;;;;;;;;;;;;6.11;100.00;103326.44;4958374;29;19941;-71
2022/03/26 00:10:06;;;;;;;;;;;;;;;6.11;100.00;103322.94;4958168;29;19918;-71
2022/03/26 00:12:31;;;;;;;;;;;;;;;6.05;100.00;103326.34;4940673;29;19919;-71
2022/03/26 00:14:58;;;;;;;;;;;;;;;5.96;100.00;103318.31;4958076;29;19922;-71
2022/03/26 00:17:23;;;;;;;;;;;;;;;5.90;100.00;103318.22;4937584;29;19930;-72
2022/03/26 00:19:48;;;;;;;;;;;;;;;5.86;100.00;103318.13;4950703;29;19926;-71
2022/03/26 00:22:14;;;;;;;;;;;;;;;5.80;100.00;103318.88;4953638;29;19923;-71
2022/03/26 00:24:39;;;;;;;;;;;;;;;5.73;100.00;103316.13;4936139;29;19927;-71
2022/03/26 00:27:04;;;;;;;;;;;;;;;5.69;100.00;103322.19;4958087;28;20376;-71
2022/03/26 00:29:30;;;;;;;;;;;;;;;5.71;100.00;103317.84;4961276;28;19968;-70
2022/03/26 00:31:55;;;;;;;;;;;;;;;5.67;100.00;103319.53;4956482;28;19925;-71
2022/03/26 00:34:20;;;;;;;;;;;;;;;5.66;100.00;103315.13;4937766;29;20379;-71
2022/03/26 00:36:45;;;;;;;;;;;;;;;5.64;100.00;103310.72;4938293;28;20009;-70
2022/03/26 00:39:11;;;;;;;;;;;;;;;5.62;100.00;103302.78;4938459;29;19970;-69
2022/03/26 00:41:36;;;;;;;;;;;;;;;5.56;100.00;103313.19;4946707;29;20013;-70
2022/03/26 00:44:02;;;;;;;;;;;;;;;5.55;100.00;103314.06;4939927;29;20017;-70
2022/03/26 00:46:27;;;;;;;;;;;;;;;5.54;100.00;103314.94;4952399;29;19933;-70
2022/03/26 00:48:52;;;;;;;;;;;;;;;5.58;100.00;103318.50;4948532;29;19926;-69
2022/03/26 00:51:18;;;;;;;;;;;;;;;5.56;100.00;103302.66;4947956;28;19922;-69
2022/03/26 00:53:43;;;;;;;;;;;;;;;5.55;100.00;103300.00;4944131;29;19950;-70
2022/03/26 00:56:08;;;;;;;;;;;;;;;5.54;100.00;103307.03;4937268;29;19923;-69
2022/03/26 00:58:34;;;;;;;;;;;;;;;5.53;100.00;103312.28;4957346;29;20406;-70
2022/03/26 01:00:59;;;;;;;;;;;;;;;5.56;100.00;103317.59;4940151;29;20009;-70
2022/03/26 01:03:24;;;;;;;;;;;;;;;5.63;100.00;103317.72;4952097;29;19919;-69
2022/03/26 01:05:49;;;;;;;;;;;;;;;5.61;100.00;103311.53;4946008;29;19919;-70
2022/03/26 01:08:15;;;;;;;;;;;;;;;5.56;100.00;103320.22;4937987;29;20361;-69
2022/03/26 01:10:41;;;;;;;;;;;;;;;5.64;100.00;103311.56;4934315;29;19918;-70
2022/03/26 01:13:07;;;;;;;;;;;;;;;5.68;100.00;103313.41;4949905;29;20384;-70
2022/03/26 01:15:32;;;;;;;;;;;;;;;5.64;100.00;103305.44;4929673;29;19962;-70
2022/03/26 01:17:57;;;;;;;;;;;;;;;5.56;100.00;103304.41;4937028;29;20021;-70
2022/03/26 01:20:23;;;;;;;;;;;;;;;5.58;100.00;103300.94;4953083;29;19925;-69
2022/03/26 01:22:48;;;;;;;;;;;;;;;5.53;100.00;103302.59;4945527;29;19930;-70
2022/03/26 01:25:13;;;;;;;;;;;;;;;5.61;100.00;103298.34;4942676;29;19926;-71
2022/03/26 01:27:39;;;;;;;;;;;;;;;5.50;100.00;103297.28;4936280;29;19927;-70
2022/03/26 01:30:04;;;;;;;;;;;;;;;5.46;100.00;103300.75;4945354;29;19922;-70
2022/03/26 01:32:29;;;;;;;;;;;;;;;5.43;100.00;103307.69;4948004;29;19919;-70
2022/03/26 01:34:55;;;;;;;;;;;;;;;5.37;100.00;103297.06;4950874;28;19922;-69
2022/03/26 01:37:20;;;;;;;;;;;;;;;5.41;100.00;103302.41;4951134;29;19926;-70
2022/03/26 01:39:45;;;;;;;;;;;;;;;5.35;100.00;103296.13;4936084;28;19918;-70
2022/03/26 01:42:10;;;;;;;;;;;;;;;5.35;100.00;103296.13;4923966;29;20430;-70
2022/03/26 01:44:37;;;;;;;;;;;;;;;5.28;100.00;103295.13;4948272;29;19919;-70
2022/03/26 01:47:03;;;;;;;;;;;;;;;5.27;100.00;103308.28;4935890;29;20376;-70
2022/03/26 01:49:29;;;;;;;;;;;;;;;5.21;100.00;103298.53;4944512;29;19922;-70
2022/03/26 01:51:54;;;;;;;;;;;;;;;5.19;100.00;103304.63;4937767;29;19918;-70
2022/03/26 01:54:46;;;;;;;;;;;;;;;5.16;100.00;103296.66;4961979;28;19925;-70
2022/03/26 01:57:12;;;;;;;;;;;;;;;5.21;100.00;103298.53;4939051;29;19918;-70
2022/03/26 01:59:38;;;;;;;;;;;;;;;5.20;100.00;103298.50;4945301;29;19949;-71
2022/03/26 02:02:05;;;;;;;;;;;;;;;5.15;100.00;103295.78;4934060;29;19919;-70
2022/03/26 02:04:30;;;;;;;;;;;;;;;5.25;100.00;103300.34;4949678;29;19923;-70
2022/03/26 02:06:55;;;;;;;;;;;;;;;5.23;100.00;103290.66;4945050;29;19926;-70
2022/03/26 02:09:21;;;;;;;;;;;;;;;5.19;100.00;103288.81;4956785;28;20478;-71
2022/03/26 02:11:46;;;;;;;;;;;;;;;5.13;100.00;103284.31;4936298;29;20014;-71
2022/03/26 02:14:12;;;;;;;;;;;;;;;5.07;100.00;103286.84;4951115;28;19970;-71
2022/03/26 02:16:39;;;;;;;;;;;;;;;5.05;100.00;103285.94;4948590;29;19918;-70
2022/03/26 02:19:05;;;;;;;;;;;;;;;5.10;100.00;103280.75;4953350;29;19966;-70
2022/03/26 02:21:31;;;;;;;;;;;;;;;5.07;100.00;103291.22;4947566;29;19918;-71
2022/03/26 02:23:56;;;;;;;;;;;;;;;5.08;100.00;103291.25;4927938;29;19923;-71
2022/03/26 02:26:25;;;;;;;;;;;;;;;5.03;100.00;103284.13;4931150;29;20014;-70
2022/03/26 02:28:52;;;;;;;;;;;;;;;5.03;100.00;103281.50;4933489;29;19918;-71
2022/03/26 02:31:17;;;;;;;;;;;;;;;4.98;100.00;103284.03;4935483;29;20296;-70
2022/03/26 02:33:43;;;;;;;;;;;;;;;5.01;100.00;103291.97;4937982;29;19926;-71
2022/03/26 02:36:09;;;;;;;;;;;;;;;4.88;100.00;103286.47;4942069;29;20110;-70
2022/03/26 02:38:35;;;;;;;;;;;;;;;5.08;100.00;103280.72;4947846;29;20354;-71
2022/03/26 02:41:00;;;;;;;;;;;;;;;5.00;100.00;103282.31;4946408;29;19919;-70
2022/03/26 02:43:26;;;;;;;;;;;;;;;4.94;100.00;103283.94;4943075;29;19925;-70
2022/03/26 02:45:51;;;;;;;;;;;;;;;4.95;100.00;103298.91;4947413;29;19919;-70
2022/03/26 02:48:16;;;;;;;;;;;;;;;4.90;100.00;103290.03;4946892;29;19923;-71
2022/03/26 02:50:42;;;;;;;;;;;;;;;4.86;100.00;103278.53;4940983;29;20336;-71
2022/03/26 02:53:08;;;;;;;;;;;;;;;4.83;100.00;103288.13;4934009;29;19918;-70
2022/03/26 02:55:34;;;;;;;;;;;;;;;4.77;100.00;103283.63;4947089;29;19968;-70
2022/03/26 02:57:59;;;;;;;;;;;;;;;4.71;100.00;103279.13;4950086;29;19918;-70
2022/03/26 03:00:25;;;;;;;;;;;;;;;4.70;100.00;103282.63;4949713;29;19919;-70
2022/03/26 03:02:50;;;;;;;;;;;;;;;4.70;100.00;103281.72;4947676;29;20395;-70
2022/03/26 03:05:15;;;;;;;;;;;;;;;4.68;100.00;103284.31;4950128;28;19923;-70
2022/03/26 03:07:40;;;;;;;;;;;;;;;4.66;100.00;103282.53;4943888;29;20033;-70
2022/03/26 03:10:06;;;;;;;;;;;;;;;4.70;100.00;103286.97;4930709;29;19927;-71
2022/03/26 03:12:31;;;;;;;;;;;;;;;4.65;100.00;103284.25;4952309;29;20351;-70
2022/03/26 03:14:56;;;;;;;;;;;;;;;4.61;100.00;103287.72;4947132;29;19941;-70
2022/03/26 03:17:21;;;;;;;;;;;;;;;4.60;100.00;103288.53;4943361;29;19941;-70
2022/03/26 03:19:47;;;;;;;;;;;;;;;4.58;100.00;103292.91;4945541;29;20288;-70
2022/03/26 03:22:12;;;;;;;;;;;;;;;4.63;100.00;103293.00;4944983;29;19944;-70
2022/03/26 03:24:37;;;;;;;;;;;;;;;4.56;100.00;103288.44;4933065;29;19922;-71
2022/03/26 03:27:03;;;;;;;;;;;;;;;4.54;100.00;103284.88;4947609;29;20388;-70
2022/03/26 03:29:28;;;;;;;;;;;;;;;4.52;100.00;103298.00;4946767;29;19962;-70
2022/03/26 03:31:54;;;;;;;;;;;;;;;4.50;100.00;103293.59;4932806;29;20009;-70
2022/03/26 03:34:20;;;;;;;;;;;;;;;4.51;100.00;103290.09;4999926;23;19932;-69
2022/03/26 03:36:45;;;;;;;;;;;;;;;4.57;100.00;103291.13;4999039;28;19921;-69
2022/03/26 03:39:11;;;;;;;;;;;;;;;4.49;100.00;103292.69;5019305;28;19924;-68
2022/03/26 03:41:36;;;;;;;;;;;;;;;4.45;100.00;103295.22;5012496;28;19917;-69
2022/03/26 03:44:04;;;;;;;;;;;;;;;4.43;100.00;103302.19;5015969;28;19917;-68
2022/03/26 03:46:30;;;;;;;;;;;;;;;4.41;100.00;103299.53;4999403;28;19955;-68
2022/03/26 03:48:55;;;;;;;;;;;;;;;4.41;100.00;103293.41;5014690;28;19962;-68
2022/03/26 03:51:21;;;;;;;;;;;;;;;4.43;100.00;103292.56;5016183;28;19921;-69
2022/03/26 03:53:46;;;;;;;;;;;;;;;4.37;100.00;103291.53;5015205;28;19918;-69
2022/03/26 03:56:11;;;;;;;;;;;;;;;4.35;100.00;103307.31;5016505;28;20067;-68
2022/03/26 03:58:36;;;;;;;;;;;;;;;4.33;100.00;103303.75;4998940;28;19917;-69
2022/03/26 04:01:02;;;;;;;;;;;;;;;4.32;100.00;103304.59;5014259;28;20015;-69
2022/03/26 04:03:29;;;;;;;;;;;;;;;4.29;100.00;103314.16;5015486;28;20132;-69
2022/03/26 04:05:54;;;;;;;;;;;;;;;4.32;100.00;103314.22;5015669;28;19951;-68
2022/03/26 04:08:21;;;;;;;;;;;;;;;4.32;100.00;103316.84;4996107;28;19922;-69
2022/03/26 04:10:46;;;;;;;;;;;;;;;4.25;100.00;103312.34;4997488;28;19918;-69
2022/03/26 04:13:11;;;;;;;;;;;;;;;4.21;100.00;103305.22;5014363;28;20286;-68
2022/03/26 04:15:36;;;;;;;;;;;;;;;4.17;100.00;103309.53;5016003;28;20025;-69
2022/03/26 04:18:02;;;;;;;;;;;;;;;4.15;100.00;103320.84;5015781;28;20342;-69
2022/03/26 04:20:27;;;;;;;;;;;;;;;4.24;100.00;103311.44;5016010;28;20008;-68
2022/03/26 04:22:52;;;;;;;;;;;;;;;4.24;100.00;103321.06;5014375;28;20370;-69
2022/03/26 04:25:17;;;;;;;;;;;;;;;4.28;100.00;103312.41;5012616;28;19972;-68
2022/03/26 04:27:43;;;;;;;;;;;;;;;4.26;100.00;103314.09;5015736;28;20397;-69
2022/03/26 04:30:09;;;;;;;;;;;;;;;4.45;100.00;103316.28;5015066;28;19921;-69
2022/03/26 04:32:34;;;;;;;;;;;;;;;4.43;100.00;103323.25;5015034;28;19937;-69
2022/03/26 04:34:59;;;;;;;;;;;;;;;4.40;100.00;103328.44;4997499;28;20267;-71
2022/03/26 04:37:25;;;;;;;;;;;;;;;4.33;100.00;103331.81;5015577;28;20385;-71
2022/03/26 04:39:50;;;;;;;;;;;;;;;4.26;100.00;103329.88;5015357;28;19953;-70
2022/03/26 04:42:15;;;;;;;;;;;;;;;4.29;100.00;103332.56;5017581;28;20004;-70
2022/03/26 04:44:40;;;;;;;;;;;;;;;4.21;100.00;103334.16;5015601;28;19917;-70
2022/03/26 04:47:06;;;;;;;;;;;;;;;4.22;100.00;103343.84;5014425;28;20359;-70
2022/03/26 04:49:31;;;;;;;;;;;;;;;4.16;100.00;103343.69;5015387;28;19921;-70
2022/03/26 04:51:56;;;;;;;;;;;;;;;4.12;100.00;103341.84;5015297;28;19918;-70
2022/03/26 04:54:21;;;;;;;;;;;;;;;4.17;100.00;103350.72;4997749;28;20337;-70
2022/03/26 04:56:47;;;;;;;;;;;;;;;4.21;100.00;103363.97;5015354;28;19924;-70
2022/03/26 04:59:12;;;;;;;;;;;;;;;4.15;100.00;103362.94;5015315;28;20000;-69
2022/03/26 05:01:37;;;;;;;;;;;;;;;4.10;100.00;103364.56;5014214;28;19918;-70
2022/03/26 05:04:02;;;;;;;;;;;;;;;4.10;100.00;103362.84;5015630;28;19955;-70
2022/03/26 05:06:28;;;;;;;;;;;;;;;4.08;100.00;103361.03;4992568;28;19926;-71
2022/03/26 05:08:53;;;;;;;;;;;;;;;4.05;100.00;103366.22;5009793;28;20016;-71
2022/03/26 05:11:19;;;;;;;;;;;;;;;4.12;100.00;103365.50;4979431;28;19928;-73
2022/03/26 05:13:45;;;;;;;;;;;;;;;4.06;100.00;103373.25;5011545;28;19917;-70
2022/03/26 05:16:10;;;;;;;;;;;;;;;4.12;100.00;103370.75;4978576;28;19918;-71
2022/03/26 05:18:37;;;;;;;;;;;;;;;4.14;100.00;103376.94;4978640;28;20329;-70
2022/03/26 05:21:02;;;;;;;;;;;;;;;4.07;100.00;103375.91;4978459;28;19918;-70
2022/03/26 05:23:27;;;;;;;;;;;;;;;4.10;100.00;103377.72;4996735;28;19918;-71
2022/03/26 05:25:53;;;;;;;;;;;;;;;4.07;100.00;103375.91;5010725;28;19922;-70
2022/03/26 05:28:18;;;;;;;;;;;;;;;4.05;100.00;103384.63;4982804;28;19923;-71
2022/03/26 05:30:44;;;;;;;;;;;;;;;4.07;100.00;103390.78;4989024;28;20362;-70
2022/03/26 05:33:09;;;;;;;;;;;;;;;4.03;100.00;103391.59;4997225;28;20344;-70
2022/03/26 05:35:34;;;;;;;;;;;;;;;3.99;100.00;103390.59;4997905;28;19925;-71
2022/03/26 05:38:00;;;;;;;;;;;;;;;4.07;100.00;103391.69;4987273;28;19949;-70
2022/03/26 05:40:26;;;;;;;;;;;;;;;4.11;100.00;103406.66;5003910;28;19922;-72
2022/03/26 05:42:52;;;;;;;;;;;;;;;4.15;100.00;103405.00;4997380;28;19925;-70
2022/03/26 05:45:17;;;;;;;;;;;;;;;4.09;100.00;103413.66;5014002;28;19917;-70
2022/03/26 05:47:42;;;;;;;;;;;;;;;4.08;100.00;103413.63;5013278;28;19921;-70
2022/03/26 05:50:10;;;;;;;;;;;;;;;4.07;100.00;103417.09;5014576;28;20385;-72
2022/03/26 05:52:35;;;;;;;;;;;;;;;4.10;100.00;103420.69;4993956;28;20276;-70
2022/03/26 05:55:01;;;;;;;;;;;;;;;4.07;100.00;103428.50;5013375;28;19932;-70
2022/03/26 05:57:26;;;;;;;;;;;;;;;4.06;100.00;103428.47;4994118;28;19923;-69
2022/03/26 05:59:51;;;;;;;;;;;;;;;4.08;100.00;103432.03;4995724;28;19961;-70
2022/03/26 06:02:16;;;;;;;;;;;;;;;4.12;100.00;103442.66;5013172;28;20295;-69
2022/03/26 06:04:43;;;;;;;;;;;;;;;4.14;100.00;103440.06;4995576;28;19921;-69
2022/03/26 06:07:08;;;;;;;;;;;;;;;4.16;100.00;103441.00;4995372;28;20031;-70
2022/03/26 06:09:34;;;;;;;;;;;;;;;4.19;100.00;103443.72;5012586;28;20386;-70
2022/03/26 06:11:59;;;;;;;;;;;;;;;4.26;100.00;103445.63;5012689;28;19917;-70
2022/03/26 06:14:25;;;;;;;;;;;;;;;4.29;100.00;103450.94;5012930;28;19918;-69
2022/03/26 06:16:51;;;;;;;;;;;;;;;4.32;100.00;103446.66;4995031;28;19917;-69
2022/03/26 06:19:26;;;;;;;;;;;;;;;4.40;100.00;103438.94;5090713;27;1925737;-70
2022/03/26 06:21:51;;;;;;;;;;;;;;;4.42;100.00;103439.88;5137743;27;19919;-69
2022/03/26 06:24:17;;;;;;;;;;;;;;;4.49;100.00;103447.06;5154253;27;19968;-70
2022/03/26 06:26:44;;;;;;;;;;;;;;;4.54;100.00;103448.94;5154468;27;19990;-70
2022/03/26 06:29:09;;;;;;;;;;;;;;;4.60;100.00;103453.47;5151473;27;19958;-69
2022/03/26 06:31:35;;;;;;;;;;;;;;;4.63;100.00;103457.06;5136341;27;20404;-70
2022/03/26 06:34:00;;;;;;;;;;;;;;;4.68;100.00;103452.78;5144365;27;19951;-70
2022/03/26 06:36:26;;;;;;;;;;;;;;;4.77;100.00;103453.84;5143758;27;19923;-69
2022/03/26 06:38:51;;;;;;;;;;;;;;;4.83;100.00;103460.16;5130988;27;20323;-70
2022/03/26 06:41:16;;;;;;;;;;;;;;;4.90;100.00;103459.41;5117336;27;19927;-70
2022/03/26 06:43:42;;;;;;;;;;;;;;;5.08;100.00;103464.19;5141490;27;19922;-69
2022/03/26 06:46:08;;;;;;;;;;;;;;;5.10;100.00;103462.50;5145426;27;19915;-71
2022/03/26 06:48:33;;;;;;;;;;;;;;;5.17;100.00;103472.31;5139578;27;19916;-69
2022/03/26 06:51:00;;;;;;;;;;;;;;;5.32;100.00;103473.53;5138757;27;20309;-70
2022/03/26 06:53:26;;;;;;;;;;;;;;;5.37;100.00;103470.97;5139735;27;19922;-70
2022/03/26 06:55:51;;;;;;;;;;;;;;;5.65;100.00;103471.56;5139957;27;20266;-69
2022/03/26 06:58:17;;;;;;;;;;;;;;;5.62;100.00;103476.78;5122871;27;20007;-72
2022/03/26 07:00:42;;;;;;;;;;;;;;;5.67;100.00;103475.09;5143767;27;20014;-69
2022/03/26 07:03:07;;;;;;;;;;;;;;;5.74;100.00;103477.00;5139944;27;20369;-73
2022/03/26 07:05:32;;;;;;;;;;;;;;;5.79;100.00;103470.06;5131904;27;19916;-70
2022/03/26 07:07:57;;;;;;;;;;;;;;;5.94;100.00;103477.41;5144635;27;19998;-70
2022/03/26 07:10:23;;;;;;;;;;;;;;;5.99;100.00;103484.53;5149743;27;19922;-70
2022/03/26 07:12:48;;;;;;;;;;;;;;;6.34;100.00;103484.22;5128927;27;19969;-70
2022/03/26 07:15:14;;;;;;;;;;;;;;;6.42;100.00;103480.88;5139839;27;19976;-71
2022/03/26 07:17:41;;;;;;;;;;;;;;;6.53;100.00;103466.09;5140884;27;19931;-69
2022/03/26 07:20:06;;;;;;;;;;;;;;;6.58;100.00;103463.50;5147810;27;19968;-72
2022/03/26 07:22:31;;;;;;;;;;;;;;;6.62;100.00;103460.06;5144450;27;19919;-70
2022/03/26 07:24:57;;;;;;;;;;;;;;;6.63;100.00;103452.19;5139178;27;19923;-71
2022/03/26 07:27:22;;;;;;;;;;;;;;;6.73;100.00;103450.56;5145080;27;20366;-71
2022/03/26 07:29:48;;;;;;;;;;;;;;;6.79;100.00;103437.44;5115169;27;19998;-71
2022/03/26 07:32:14;;;;;;;;;;;;;;;6.90;100.00;103433.19;5122593;27;20000;-70
2022/03/26 07:34:39;;;;;;;;;;;;;;;7.01;100.00;103424.50;5116423;28;19959;-70
2022/03/26 07:37:04;;;;;;;;;;;;;;;7.08;100.00;103413.16;5116805;28;19927;-70
2022/03/26 07:39:29;;;;;;;;;;;;;;;7.19;100.00;103411.53;5099072;27;19934;-70
2022/03/26 07:41:55;;;;;;;;;;;;;;;7.31;100.00;103408.16;5126814;27;19997;-73
2022/03/26 07:44:20;;;;;;;;;;;;;;;7.42;100.00;103401.25;5120176;27;19922;-72
2022/03/26 07:46:45;;;;;;;;;;;;;;;7.55;100.00;103395.19;5120027;27;19954;-73
2022/03/26 07:49:10;;;;;;;;;;;;;;;7.66;100.00;103388.25;5134443;27;20328;-70
2022/03/26 07:51:37;;;;;;;;;;;;;;;7.81;100.00;103386.63;5119324;27;19972;-72
2022/03/26 07:54:02;;;;;;;;;;;;;;;8.03;100.00;103373.59;5128492;27;19960;-71
2022/03/26 07:56:27;;;;;;;;;;;;;;;8.01;100.00;103378.88;5103578;27;19923;-73
2022/03/26 07:58:54;;;;;;;;;;;;;;;8.11;100.00;103383.38;5119028;27;20013;-73
2022/03/26 08:01:19;;;;;;;;;;;;;;;8.18;100.00;103386.97;5119011;27;19990;-71
2022/03/26 08:03:44;;;;;;;;;;;;;;;8.51;100.00;103381.94;5102561;28;19916;-72
2022/03/26 08:06:09;;;;;;;;;;;;;;;8.59;100.00;103383.72;5119149;27;19941;-71
2022/03/26 08:08:35;;;;;;;;;;;;;;;8.53;100.00;103383.69;5132789;27;20057;-71
2022/03/26 08:11:00;;;;;;;;;;;;;;;8.81;100.00;103385.63;5120102;27;19959;-71
2022/03/26 08:13:26;;;;;;;;;;;;;;;8.82;100.00;103381.22;5113101;27;19930;-71
2022/03/26 08:15:51;;;;;;;;;;;;;;;9.03;100.00;103392.78;5123670;27;19915;-71
2022/03/26 08:18:16;;;;;;;;;;;;;;;9.01;100.00;103391.03;5115270;27;19972;-71
2022/03/26 08:20:43;;;;;;;;;;;;;;;9.08;100.00;103385.75;5106306;27;19919;-72
2022/03/26 08:23:08;;;;;;;;;;;;;;;9.22;100.00;103391.97;5117507;27;19945;-71
2022/03/26 08:28:18;;;;;;;;;;;;;;;9.55;100.00;103383.22;5124779;27;19922;-71
2022/03/26 08:30:43;;;;;;;;;;;;;;;9.63;100.00;103378.81;5124369;27;19927;-71
2022/03/26 08:33:08;;;;;;;;;;;;;;;9.86;100.00;103381.50;5116818;27;19929;-70
2022/03/26 08:35:34;;;;;;;;;;;;;;;9.91;100.00;103377.09;5129805;27;19964;-71
2022/03/26 08:38:00;;;;;;;;;;;;;;;10.13;100.00;103378.88;5111076;27;19916;-70
2022/03/26 08:40:25;;;;;;;;;;;;;;;10.11;100.00;103378.00;5115139;27;19965;-71
2022/03/26 08:42:50;;;;;;;;;;;;;;;10.28;100.00;103370.88;5134514;27;20006;-71
2022/03/26 08:45:15;;;;;;;;;;;;;;;10.45;100.00;103363.75;5131521;27;19919;-70
2022/03/26 08:47:40;;;;;;;;;;;;;;;10.56;100.00;103367.28;5126269;27;19920;-70
2022/03/26 08:50:06;;;;;;;;;;;;;;;10.92;100.00;103363.63;5128664;27;19920;-70
2022/03/26 08:52:33;;;;;;;;;;;;;;;10.99;100.00;103355.63;5119655;27;19919;-70
2022/03/26 08:54:59;;;;;;;;;;;;;;;11.21;100.00;103343.09;5115873;27;19919;-70
2022/03/26 08:57:24;;;;;;;;;;;;;;;11.31;100.00;103343.06;5107127;27;19943;-72
2022/03/26 08:59:49;;;;;;;;;;;;;;;11.25;100.00;103347.53;5135387;27;19923;-72
2022/03/26 09:02:14;;;;;;;;;;;;;;;11.37;100.00;103345.66;5117166;27;19926;-72
2022/03/26 09:04:40;;;;;;;;;;;;;;;11.71;100.00;103336.56;5120229;27;19986;-74
2022/03/26 09:07:05;;;;;;;;;;;;;;;12.40;100.00;103334.16;5138877;27;20450;-72
2022/03/26 09:09:30;;;;;;;;;;;;;;;13.08;100.00;103336.94;5126337;27;19955;-71
2022/03/26 09:11:55;;;;;;;;;;;;;;;13.65;100.00;103341.41;5100346;28;19916;-71
2022/03/26 09:14:20;;;;;;;;;;;;;;;14.25;100.00;103347.53;5113029;27;19919;-71
2022/03/26 09:16:46;;;;;;;;;;;;;;;14.74;100.00;103356.38;5135886;27;19916;-71
2022/03/26 09:19:11;;;;;;;;;;;;;;;14.83;100.00;103362.41;5135648;27;19923;-71
2022/03/26 09:21:36;;;;;;;;;;;;;;;14.79;100.00;103368.75;5135623;27;19916;-70
2022/03/26 09:24:01;;;;;;;;;;;;;;;15.12;100.00;103368.06;5135086;27;19922;-71
2022/03/26 09:26:27;;;;;;;;;;;;;;;16.09;100.00;103382.75;5116900;27;20269;-72
2022/03/26 09:28:52;;;;;;;;;;;;;;;15.65;100.00;103390.97;5135214;27;19922;-72
2022/03/26 09:31:17;;;;;;;;;;;;;;;16.56;100.00;103400.31;5135117;27;20021;-71
2022/03/26 09:33:43;;;;;;;;;;;;;;;17.33;100.00;103395.41;5116765;27;19927;-72
2022/03/26 09:36:09;;;;;;;;;;;;;;;17.24;100.00;103401.06;5135236;27;19928;-71
2022/03/26 09:38:34;;;;;;;;;;;;;;;17.25;100.00;103395.63;5135131;27;20393;-72
2022/03/26 09:41:00;;;;;;;;;;;;;;;17.44;100.00;103396.88;5116518;27;19915;-71
2022/03/26 09:43:28;;;;;;;;;;;;;;;17.79;100.00;103390.38;5135257;27;19919;-72
2022/03/26 09:45:53;;;;;;;;;;;;;;;18.22;100.00;103396.06;5135001;27;19915;-70
2022/03/26 09:48:18;;;;;;;;;;;;;;;19.34;100.00;103404.56;5116530;27;20294;-69
2022/03/26 09:50:44;;;;;;;;;;;;;;;19.11;100.00;103398.25;5134536;27;20025;-70
2022/03/26 09:53:10;;;;;;;;;;;;;;;18.76;100.00;103402.25;5134668;27;20354;-71
2022/03/26 09:55:36;;;;;;;;;;;;;;;18.51;100.00;103403.19;5134885;27;20002;-70
2022/03/26 09:58:01;;;;;;;;;;;;;;;19.01;100.00;103402.22;5134178;27;19915;-71
2022/03/26 10:00:26;;;;;;;;;;;;;;;19.37;100.00;103400.84;5116391;27;20330;-70
2022/03/26 10:02:52;;;;;;;;;;;;;;;19.79;100.00;103396.47;5134560;27;19923;-70
2022/03/26 10:05:18;;;;;;;;;;;;;;;19.78;100.00;103394.69;5134647;27;20002;-70
2022/03/26 10:07:44;;;;;;;;;;;;;;;20.39;100.00;103399.31;5134550;27;19996;-70
2022/03/26 10:10:20;;;;;;;;;;;;;;;20.56;100.00;103394.09;5134580;27;19922;-70
2022/03/26 10:12:48;;;;;;;;;;;;;;;19.51;100.00;103391.28;5134783;27;19956;-70
2022/03/26 10:15:13;;;;;;;;;;;;;;;20.03;100.00;103395.44;5134659;27;20632;-70
2022/03/26 10:17:38;;;;;;;;;;;;;;;20.40;100.00;103397.50;5115961;28;19920;-70
2022/03/26 10:20:05;;;;;;;;;;;;;;;20.25;100.00;103400.88;5116031;28;19920;-70
2022/03/26 10:22:34;;;;;;;;;;;;;;;20.38;100.00;103385.88;5134789;28;19916;-70
2022/03/26 10:25:05;;;;;;;;;;;;;;;20.18;100.00;103397.56;5134759;28;19966;-71
2022/03/26 10:27:34;;;;;;;;;;;;;;;20.45;100.00;103387.38;5134351;28;19915;-70
2022/03/26 10:30:00;;;;;;;;;;;;;;;19.93;100.00;103385.09;5134281;28;19919;-69
2022/03/26 10:32:41;;;;;;;;;;;;;;;20.75;100.00;103384.19;5134213;28;19922;-70
2022/03/26 10:35:07;;;;;;;;;;;;;;;21.05;100.00;103392.78;5134374;28;20347;-70
2022/03/26 10:37:49;;;;;;;;;;;;;;;20.96;100.00;103385.97;5133968;28;19916;-70
2022/03/26 10:40:20;;;;;;;;;;;;;;;21.56;100.00;103386.75;5115964;28;19920;-70
2022/03/26 10:42:51;;;;;;;;;;;;;;;21.39;100.00;103373.13;5134261;28;19915;-70
2022/03/26 10:45:16;;;;;;;;;;;;;;;21.11;100.00;103377.16;5115892;28;19965;-70
2022/03/26 10:47:42;;;;;;;;;;;;;;;22.07;100.00;103379.66;5134268;28;19919;-70
2022/03/26 10:50:07;;;;;;;;;;;;;;;22.09;100.00;103380.44;5134099;28;19916;-70
2022/03/26 10:52:32;;;;;;;;;;;;;;;23.92;100.00;103387.53;5134187;28;19961;-70
2022/03/26 10:54:59;;;;;;;;;;;;;;;23.27;100.00;103383.16;5115676;28;19942;-71
2022/03/26 10:57:25;;;;;;;;;;;;;;;22.76;100.00;103380.53;5115703;28;20267;-71
2022/03/26 10:59:51;;;;;;;;;;;;;;;23.39;100.00;103381.59;5115883;28;20370;-71
2022/03/26 11:02:16;;;;;;;;;;;;;;;23.00;100.00;103387.34;5134094;28;19915;-71
2022/03/26 11:04:41;;;;;;;;;;;;;;;24.22;100.00;103379.44;5116988;27;19916;-72
2022/03/26 11:07:07;;;;;;;;;;;;;;;23.68;100.00;103384.41;5119301;27;19919;-71
2022/03/26 11:09:32;;;;;;;;;;;;;;;24.40;100.00;103389.19;5126206;27;19916;-71
2022/03/26 11:11:58;;;;;;;;;;;;;;;24.94;100.00;103392.16;5117253;28;19999;-71
2022/03/26 11:14:25;;;;;;;;;;;;;;;25.12;100.00;103384.66;5099060;28;19955;-71
2022/03/26 11:17:00;;;;;;;;;;;;;;;25.89;100.00;103388.63;5117113;28;19920;-71
2022/03/26 11:19:45;;;;;;;;;;;;;;;25.88;100.00;103381.44;5117113;28;19926;-70
2022/03/26 11:22:29;;;;;;;;;;;;;;;26.32;100.00;103382.06;5117086;28;19916;-71
2022/03/26 11:25:13;;;;;;;;;;;;;;;26.70;100.00;103382.13;5098699;28;19927;-72
2022/03/26 11:27:48;;;;;;;;;;;;;;;26.87;100.00;103385.41;5098751;28;19955;-71
2022/03/26 11:30:18;;;;;;;;;;;;;;;26.36;100.00;103369.09;5098815;28;20301;-71
2022/03/26 11:32:44;;;;;;;;;;;;;;;27.92;100.00;103378.59;5098543;28;19916;-72
2022/03/26 11:35:14;;;;;;;;;;;;;;;27.68;100.00;103377.66;5081768;28;20001;-72
2022/03/26 11:37:56;;;;;;;;;;;;;;;26.14;100.00;103371.56;5098553;28;20008;-72
2022/03/26 11:40:43;;;;;;;;;;;;;;;26.15;100.00;103365.13;5098723;28;19938;-72
2022/03/26 11:43:09;;;;;;;;;;;;;;;27.64;100.00;103374.28;5098500;28;19923;-72
2022/03/26 11:51:20;;;;;;;;;;;;;;;27.13;100.00;103366.31;5117271;28;20431;-71
2022/03/26 11:53:49;;;;;;;;;;;;;;;28.08;100.00;103368.25;5116750;28;19916;-71
2022/03/26 11:56:22;;;;;;;;;;;;;;;28.08;100.00;103360.03;5098340;28;20347;-72
2022/03/26 11:59:06;;;;;;;;;;;;;;;28.78;100.00;103364.47;5116842;28;19915;-71
2022/03/26 12:01:43;;;;;;;;;;;;;;;28.74;99.38;103364.84;5098893;28;19920;-71
2022/03/26 12:04:10;;;;;;;;;;;;;;;29.24;97.55;103356.19;5116830;28;19951;-71
2022/03/26 12:06:41;;;;;;;;;;;;;;;27.93;100.00;103350.25;5116435;28;19915;-71
2022/03/26 12:09:08;;;;;;;;;;;;;;;29.50;95.50;103352.19;5124603;27;19938;-71
2022/03/26 12:11:34;;;;;;;;;;;;;;;28.80;98.47;103348.81;5137164;27;19975;-71
2022/03/26 12:14:00;;;;;;;;;;;;;;;29.08;93.63;103355.69;5119031;27;19915;-72
2022/03/26 12:16:45;;;;;;;;;;;;;;;28.79;95.27;103349.78;5118589;27;20019;-71
2022/03/26 12:19:11;;;;;;;;;;;;;;;29.68;95.24;103343.31;5118099;27;20511;-72
2022/03/26 12:21:48;;;;;;;;;;;;;;;28.44;96.00;103357.19;5101044;27;19970;-72
2022/03/26 12:24:17;;;;;;;;;;;;;;;28.93;95.00;103343.22;5118190;27;19926;-72
2022/03/26 12:26:49;;;;;;;;;;;;;;;29.43;91.37;103343.59;5136541;27;19915;-71
2022/03/26 12:29:14;;;;;;;;;;;;;;;28.94;94.31;103342.22;5136550;27;19920;-72
2022/03/26 12:31:39;;;;;;;;;;;;;;;30.09;80.80;103347.16;5136598;27;20013;-72
2022/03/26 12:34:04;;;;;;;;;;;;;;;30.35;84.51;103343.06;5136589;27;20293;-72
2022/03/26 12:36:34;;;;;;;;;;;;;;;29.63;90.23;103339.19;5137004;27;19947;-71